N14AD KCLT-KRDU
Flight info
| Callsign | N14AD |
|---|---|
| Flight time | 0h 45m |
| Altitude | 21000 |
| Route | LILLS3 LILLS ETBUY DMSTR2 |
| Aircraft | C25C/M-SDE2E3FGHRWXY/LB1 |
Departure
| Time | 2026-05-07 01:07 |
|---|---|
| Airport | Charlotte Douglas International Airport (KCLT) |
Arrival
| Time | 2026-05-07 01:52 |
|---|---|
| Airport | Raleigh-Durham International Airport (KRDU) |
| Time | Latitude | Longitude | Altitude | Speed | Heading |
|---|---|---|---|---|---|
| 2026-05-07 00:49 | 35.21071 | -80.93152 | 734 ft | 0 kts | 87° |
| 2026-05-07 01:00 | 35.21071 | -80.93150 | 734 ft | 1 kts | 66° |
| 2026-05-07 01:00 | 35.21078 | -80.93144 | 734 ft | 6 kts | 41° |
| 2026-05-07 01:00 | 35.21125 | -80.93134 | 734 ft | 7 kts | 316° |
| 2026-05-07 01:00 | 35.21128 | -80.93201 | 734 ft | 8 kts | 266° |
| 2026-05-07 01:01 | 35.21124 | -80.93276 | 734 ft | 9 kts | 266° |
| 2026-05-07 01:01 | 35.21121 | -80.93322 | 734 ft | 0 kts | 266° |
| 2026-05-07 01:01 | 35.21121 | -80.93326 | 734 ft | 3 kts | 266° |
| 2026-05-07 01:02 | 35.21156 | -80.93369 | 735 ft | 12 kts | 359° |
| 2026-05-07 01:02 | 35.21248 | -80.93377 | 736 ft | 14 kts | 355° |
| 2026-05-07 01:02 | 35.21356 | -80.93387 | 736 ft | 17 kts | 359° |
| 2026-05-07 01:02 | 35.21468 | -80.93394 | 738 ft | 16 kts | 354° |
| 2026-05-07 01:03 | 35.21571 | -80.93405 | 739 ft | 14 kts | 355° |
| 2026-05-07 01:03 | 35.21668 | -80.93415 | 740 ft | 14 kts | 356° |
| 2026-05-07 01:03 | 35.21761 | -80.93423 | 741 ft | 13 kts | 355° |
| 2026-05-07 01:03 | 35.21849 | -80.93430 | 742 ft | 12 kts | 359° |
| 2026-05-07 01:04 | 35.21925 | -80.93421 | 744 ft | 10 kts | 12° |
| 2026-05-07 01:04 | 35.21996 | -80.93401 | 745 ft | 12 kts | 13° |
| 2026-05-07 01:04 | 35.22088 | -80.93382 | 746 ft | 14 kts | 356° |
| 2026-05-07 01:04 | 35.22189 | -80.93390 | 746 ft | 15 kts | 355° |
| 2026-05-07 01:05 | 35.22299 | -80.93400 | 747 ft | 16 kts | 355° |
| 2026-05-07 01:05 | 35.22414 | -80.93411 | 748 ft | 17 kts | 355° |
| 2026-05-07 01:05 | 35.22514 | -80.93445 | 749 ft | 13 kts | 302° |
| 2026-05-07 01:05 | 35.22517 | -80.93506 | 748 ft | 0 kts | 267° |
| 2026-05-07 01:06 | 35.22517 | -80.93507 | 748 ft | 1 kts | 267° |
| 2026-05-07 01:06 | 35.22514 | -80.93562 | 748 ft | 11 kts | 258° |
| 2026-05-07 01:06 | 35.22449 | -80.93613 | 748 ft | 13 kts | 176° |
| 2026-05-07 01:07 | 35.22163 | -80.93590 | 744 ft | 90 kts | 176° |
| 2026-05-07 01:07 | 35.21254 | -80.93505 | 983 ft | 161 kts | 174° |
| 2026-05-07 01:07 | 35.19955 | -80.93236 | 1566 ft | 205 kts | 171° |
| 2026-05-07 01:07 | 35.18467 | -80.92882 | 2264 ft | 241 kts | 175° |
| 2026-05-07 01:08 | 35.16814 | -80.92292 | 3309 ft | 259 kts | 155° |
| 2026-05-07 01:08 | 35.15527 | -80.90773 | 4337 ft | 274 kts | 136° |
| 2026-05-07 01:08 | 35.14332 | -80.88921 | 5089 ft | 281 kts | 134° |
| 2026-05-07 01:08 | 35.13155 | -80.86996 | 5641 ft | 286 kts | 133° |
| 2026-05-07 01:09 | 35.11994 | -80.84993 | 6158 ft | 294 kts | 125° |
| 2026-05-07 01:09 | 35.11252 | -80.82693 | 6648 ft | 304 kts | 110° |
| 2026-05-07 01:09 | 35.10771 | -80.80200 | 7221 ft | 310 kts | 105° |
| 2026-05-07 01:09 | 35.10349 | -80.77615 | 8151 ft | 312 kts | 104° |
| 2026-05-07 01:10 | 35.09947 | -80.74993 | 9043 ft | 318 kts | 103° |
| 2026-05-07 01:10 | 35.09521 | -80.72371 | 9931 ft | 323 kts | 105° |
| 2026-05-07 01:10 | 35.09022 | -80.69619 | 10440 ft | 342 kts | 105° |
| 2026-05-07 01:10 | 35.08472 | -80.66693 | 10911 ft | 361 kts | 105° |
| 2026-05-07 01:11 | 35.07910 | -80.63711 | 11551 ft | 368 kts | 105° |
| 2026-05-07 01:11 | 35.07367 | -80.60638 | 12292 ft | 373 kts | 104° |
| 2026-05-07 01:11 | 35.06817 | -80.57514 | 12941 ft | 383 kts | 105° |
| 2026-05-07 01:11 | 35.06208 | -80.54236 | 12976 ft | 407 kts | 105° |
| 2026-05-07 01:12 | 35.05572 | -80.50844 | 12982 ft | 404 kts | 105° |
| 2026-05-07 01:12 | 35.04995 | -80.47544 | 12985 ft | 392 kts | 104° |
| 2026-05-07 01:12 | 35.04416 | -80.44339 | 12983 ft | 389 kts | 105° |
| 2026-05-07 01:12 | 35.03824 | -80.41181 | 12982 ft | 389 kts | 105° |
| 2026-05-07 01:13 | 35.03220 | -80.37973 | 12980 ft | 390 kts | 105° |
| 2026-05-07 01:13 | 35.02649 | -80.34730 | 12973 ft | 392 kts | 104° |
| 2026-05-07 01:13 | 35.02058 | -80.31484 | 12974 ft | 393 kts | 105° |
| 2026-05-07 01:13 | 35.01489 | -80.28461 | 12973 ft | 394 kts | 105° |
| 2026-05-07 01:14 | 35.00870 | -80.25196 | 12973 ft | 395 kts | 105° |
| 2026-05-07 01:14 | 35.00297 | -80.21936 | 12974 ft | 395 kts | 105° |
| 2026-05-07 01:14 | 34.99745 | -80.18931 | 12971 ft | 395 kts | 105° |
| 2026-05-07 01:14 | 34.99132 | -80.15681 | 12976 ft | 396 kts | 105° |
| 2026-05-07 01:15 | 34.98480 | -80.12577 | 12975 ft | 395 kts | 109° |
| 2026-05-07 01:15 | 34.97633 | -80.09393 | 12974 ft | 395 kts | 111° |
| 2026-05-07 01:15 | 34.96780 | -80.06208 | 12982 ft | 395 kts | 110° |
| 2026-05-07 01:15 | 34.95999 | -80.02966 | 12979 ft | 398 kts | 108° |
| 2026-05-07 01:16 | 34.95495 | -79.99651 | 12968 ft | 407 kts | 91° |
| 2026-05-07 01:16 | 34.96008 | -79.96382 | 12967 ft | 411 kts | 66° |
| 2026-05-07 01:16 | 34.97595 | -79.93452 | 12979 ft | 408 kts | 41° |
| 2026-05-07 01:16 | 34.99914 | -79.91573 | 12980 ft | 395 kts | 17° |
| 2026-05-07 01:17 | 35.02542 | -79.90815 | 12976 ft | 387 kts | 6° |
| 2026-05-07 01:17 | 35.05036 | -79.89496 | 12969 ft | 399 kts | 32° |
| 2026-05-07 01:17 | 35.06917 | -79.86995 | 12964 ft | 406 kts | 57° |
| 2026-05-07 01:17 | 35.08189 | -79.83926 | 12967 ft | 405 kts | 58° |
| 2026-05-07 01:18 | 35.09832 | -79.81159 | 12971 ft | 402 kts | 46° |
| 2026-05-07 01:18 | 35.11695 | -79.78595 | 12971 ft | 402 kts | 44° |
| 2026-05-07 01:18 | 35.13565 | -79.76124 | 12960 ft | 401 kts | 44° |
| 2026-05-07 01:18 | 35.15481 | -79.73609 | 12957 ft | 401 kts | 44° |
| 2026-05-07 01:19 | 35.17329 | -79.71060 | 12958 ft | 402 kts | 46° |
| 2026-05-07 01:19 | 35.19131 | -79.68499 | 12965 ft | 402 kts | 46° |
| 2026-05-07 01:19 | 35.20956 | -79.65887 | 12963 ft | 402 kts | 46° |
| 2026-05-07 01:19 | 35.22767 | -79.63292 | 13024 ft | 400 kts | 46° |
| 2026-05-07 01:20 | 35.24592 | -79.60725 | 13031 ft | 400 kts | 45° |
| 2026-05-07 01:20 | 35.26441 | -79.58168 | 13039 ft | 400 kts | 45° |
| 2026-05-07 01:20 | 35.28265 | -79.55584 | 13047 ft | 401 kts | 46° |
| 2026-05-07 01:20 | 35.30085 | -79.52988 | 13050 ft | 402 kts | 46° |
| 2026-05-07 01:21 | 35.31834 | -79.50499 | 13049 ft | 402 kts | 45° |
| 2026-05-07 01:21 | 35.33696 | -79.47928 | 13056 ft | 403 kts | 45° |
| 2026-05-07 01:21 | 35.35576 | -79.45351 | 13051 ft | 402 kts | 42° |
| 2026-05-07 01:21 | 35.37655 | -79.43082 | 13052 ft | 400 kts | 35° |
| 2026-05-07 01:22 | 35.39837 | -79.40963 | 13054 ft | 398 kts | 33° |
| 2026-05-07 01:22 | 35.42025 | -79.38901 | 13048 ft | 394 kts | 33° |
| 2026-05-07 01:22 | 35.44119 | -79.36888 | 13044 ft | 393 kts | 34° |
| 2026-05-07 01:22 | 35.46137 | -79.34859 | 13040 ft | 391 kts | 35° |
| 2026-05-07 01:23 | 35.48256 | -79.32689 | 13028 ft | 391 kts | 36° |
| 2026-05-07 01:23 | 35.49608 | -79.31301 | 13031 ft | 392 kts | 36° |
| 2026-05-07 01:23 | 35.52342 | -79.28492 | 13031 ft | 395 kts | 36° |
| 2026-05-07 01:23 | 35.54248 | -79.26567 | 13033 ft | 395 kts | 34° |
| 2026-05-07 01:24 | 35.56415 | -79.24456 | 13035 ft | 397 kts | 34° |
| 2026-05-07 01:24 | 35.58405 | -79.22449 | 13031 ft | 398 kts | 35° |
| 2026-05-07 01:24 | 35.60552 | -79.20248 | 12731 ft | 404 kts | 36° |
| 2026-05-07 01:24 | 35.61982 | -79.18773 | 12357 ft | 398 kts | 36° |
| 2026-05-07 01:25 | 35.64360 | -79.15647 | 11782 ft | 386 kts | 50° |
| 2026-05-07 01:25 | 35.65434 | -79.13876 | 11509 ft | 381 kts | 50° |
| 2026-05-07 01:25 | 35.66989 | -79.11257 | 11096 ft | 381 kts | 51° |
| 2026-05-07 01:25 | 35.69027 | -79.07787 | 10581 ft | 376 kts | 51° |
| 2026-05-07 01:26 | 35.70062 | -79.06051 | 10326 ft | 369 kts | 50° |
| 2026-05-07 01:26 | 35.71593 | -79.03549 | 9956 ft | 364 kts | 51° |
| 2026-05-07 01:26 | 35.73072 | -79.01052 | 9556 ft | 361 kts | 51° |
| 2026-05-07 01:26 | 35.74530 | -78.98562 | 9166 ft | 358 kts | 51° |
| 2026-05-07 01:27 | 35.76014 | -78.96114 | 8785 ft | 354 kts | 50° |
| 2026-05-07 01:27 | 35.77467 | -78.93678 | 8416 ft | 352 kts | 51° |
| 2026-05-07 01:27 | 35.78819 | -78.91188 | 8103 ft | 348 kts | 63° |
| 2026-05-07 01:27 | 35.79407 | -78.88375 | 7858 ft | 339 kts | 82° |
| 2026-05-07 01:28 | 35.79652 | -78.85523 | 7621 ft | 329 kts | 85° |
| 2026-05-07 01:28 | 35.79850 | -78.82781 | 7384 ft | 310 kts | 84° |
| 2026-05-07 01:28 | 35.80112 | -78.80235 | 7165 ft | 294 kts | 82° |
| 2026-05-07 01:28 | 35.80394 | -78.77798 | 6963 ft | 288 kts | 82° |
| 2026-05-07 01:29 | 35.80627 | -78.75385 | 6730 ft | 278 kts | 84° |
| 2026-05-07 01:29 | 35.80833 | -78.73061 | 6492 ft | 272 kts | 81° |
| 2026-05-07 01:29 | 35.81581 | -78.70951 | 6254 ft | 268 kts | 46° |
| 2026-05-07 01:29 | 35.82865 | -78.69323 | 6055 ft | 262 kts | 38° |
| 2026-05-07 01:30 | 35.84182 | -78.67814 | 5990 ft | 254 kts | 38° |
| 2026-05-07 01:30 | 35.85447 | -78.66351 | 5991 ft | 248 kts | 38° |
| 2026-05-07 01:30 | 35.86714 | -78.64892 | 5995 ft | 251 kts | 38° |
| 2026-05-07 01:30 | 35.87994 | -78.63364 | 5714 ft | 267 kts | 39° |
| 2026-05-07 01:31 | 35.89416 | -78.61713 | 5068 ft | 292 kts | 39° |
| 2026-05-07 01:31 | 35.90848 | -78.60069 | 4690 ft | 269 kts | 39° |
| 2026-05-07 01:31 | 35.92183 | -78.58543 | 4611 ft | 253 kts | 39° |
| 2026-05-07 01:31 | 35.93432 | -78.57099 | 4604 ft | 238 kts | 38° |
| 2026-05-07 01:32 | 35.94600 | -78.55728 | 4587 ft | 226 kts | 39° |
| 2026-05-07 01:32 | 35.95712 | -78.54449 | 4542 ft | 216 kts | 34° |
| 2026-05-07 01:32 | 35.97023 | -78.53834 | 4428 ft | 189 kts | 346° |
| 2026-05-07 01:32 | 35.98084 | -78.54440 | 4302 ft | 163 kts | 310° |
| 2026-05-07 01:33 | 35.98763 | -78.55449 | 4199 ft | 145 kts | 277° |
| 2026-05-07 01:33 | 35.98751 | -78.56785 | 4143 ft | 173 kts | 263° |
| 2026-05-07 01:33 | 35.98611 | -78.58379 | 4072 ft | 194 kts | 261° |
| 2026-05-07 01:33 | 35.98438 | -78.60028 | 3995 ft | 191 kts | 261° |
| 2026-05-07 01:34 | 35.98294 | -78.61613 | 3997 ft | 180 kts | 262° |
| 2026-05-07 01:34 | 35.98198 | -78.63142 | 4025 ft | 179 kts | 263° |
| 2026-05-07 01:34 | 35.98107 | -78.64650 | 4015 ft | 174 kts | 262° |
| 2026-05-07 01:34 | 35.97651 | -78.65964 | 4016 ft | 168 kts | 231° |
| 2026-05-07 01:35 | 35.96812 | -78.67013 | 3788 ft | 175 kts | 227° |
| 2026-05-07 01:35 | 35.95939 | -78.68022 | 3546 ft | 168 kts | 226° |
| 2026-05-07 01:35 | 35.95109 | -78.69009 | 3196 ft | 166 kts | 227° |
| 2026-05-07 01:35 | 35.94292 | -78.70025 | 2780 ft | 168 kts | 227° |
| 2026-05-07 01:36 | 35.93509 | -78.71020 | 2371 ft | 152 kts | 227° |
| 2026-05-07 01:36 | 35.92868 | -78.71828 | 2149 ft | 110 kts | 226° |
| 2026-05-07 01:36 | 35.92394 | -78.72390 | 2014 ft | 85 kts | 226° |
| 2026-05-07 01:36 | 35.91948 | -78.72941 | 1732 ft | 94 kts | 226° |
| 2026-05-07 01:37 | 35.91467 | -78.73556 | 1616 ft | 109 kts | 227° |
| 2026-05-07 01:37 | 35.90915 | -78.74261 | 1603 ft | 125 kts | 227° |
| 2026-05-07 01:37 | 35.90254 | -78.75100 | 1645 ft | 147 kts | 227° |
| 2026-05-07 01:37 | 35.89509 | -78.76067 | 1790 ft | 163 kts | 227° |
| 2026-05-07 01:38 | 35.88696 | -78.77123 | 1973 ft | 175 kts | 227° |
| 2026-05-07 01:38 | 35.87835 | -78.78231 | 2123 ft | 180 kts | 227° |
| 2026-05-07 01:38 | 35.86891 | -78.79249 | 2299 ft | 183 kts | 212° |
| 2026-05-07 01:38 | 35.85713 | -78.79887 | 2406 ft | 189 kts | 204° |
| 2026-05-07 01:39 | 35.84436 | -78.80439 | 2359 ft | 201 kts | 202° |
| 2026-05-07 01:39 | 35.83044 | -78.81012 | 2241 ft | 220 kts | 200° |
| 2026-05-07 01:39 | 35.81473 | -78.81149 | 2145 ft | 247 kts | 169° |
| 2026-05-07 01:39 | 35.79948 | -78.79969 | 2071 ft | 272 kts | 142° |
| 2026-05-07 01:40 | 35.78695 | -78.78282 | 2018 ft | 257 kts | 134° |
| 2026-05-07 01:40 | 35.77641 | -78.76619 | 2026 ft | 237 kts | 132° |
| 2026-05-07 01:40 | 35.76657 | -78.74979 | 2120 ft | 241 kts | 131° |
| 2026-05-07 01:40 | 35.75760 | -78.73201 | 2216 ft | 252 kts | 113° |
| 2026-05-07 01:41 | 35.75757 | -78.71012 | 2343 ft | 265 kts | 73° |
| 2026-05-07 01:41 | 35.76709 | -78.69079 | 2576 ft | 268 kts | 52° |
| 2026-05-07 01:41 | 35.77851 | -78.67304 | 2832 ft | 270 kts | 50° |
| 2026-05-07 01:41 | 35.79061 | -78.65525 | 3072 ft | 272 kts | 47° |
| 2026-05-07 01:42 | 35.80447 | -78.63902 | 3038 ft | 282 kts | 30° |
| 2026-05-07 01:42 | 35.82314 | -78.63152 | 3007 ft | 287 kts | 5° |
| 2026-05-07 01:42 | 35.84295 | -78.62815 | 3007 ft | 280 kts | 2° |
| 2026-05-07 01:42 | 35.86141 | -78.62452 | 2995 ft | 267 kts | 15° |
| 2026-05-07 01:43 | 35.87752 | -78.61171 | 3011 ft | 281 kts | 37° |
| 2026-05-07 01:43 | 35.89227 | -78.59618 | 3003 ft | 276 kts | 39° |
| 2026-05-07 01:43 | 35.90644 | -78.58061 | 3003 ft | 270 kts | 40° |
| 2026-05-07 01:43 | 35.92070 | -78.56581 | 3001 ft | 265 kts | 29° |
| 2026-05-07 01:44 | 35.93765 | -78.56020 | 3002 ft | 240 kts | 349° |
| 2026-05-07 01:44 | 35.95142 | -78.56764 | 3005 ft | 202 kts | 305° |
| 2026-05-07 01:44 | 35.95860 | -78.58104 | 3008 ft | 180 kts | 288° |
| 2026-05-07 01:44 | 35.96040 | -78.59510 | 3007 ft | 160 kts | 264° |
| 2026-05-07 01:45 | 35.96043 | -78.60836 | 3010 ft | 149 kts | 265° |
| 2026-05-07 01:45 | 35.96059 | -78.62200 | 3013 ft | 168 kts | 269° |
| 2026-05-07 01:45 | 35.95771 | -78.63588 | 3020 ft | 178 kts | 229° |
| 2026-05-07 01:45 | 35.94597 | -78.64083 | 2980 ft | 195 kts | 182° |
| 2026-05-07 01:46 | 35.93337 | -78.63290 | 2886 ft | 220 kts | 138° |
| 2026-05-07 01:46 | 35.92783 | -78.61494 | 2895 ft | 234 kts | 95° |
| 2026-05-07 01:46 | 35.93278 | -78.59598 | 2935 ft | 234 kts | 52° |
| 2026-05-07 01:46 | 35.94490 | -78.58410 | 2946 ft | 220 kts | 13° |
| 2026-05-07 01:47 | 35.95914 | -78.58455 | 2945 ft | 196 kts | 326° |
| 2026-05-07 01:47 | 35.97006 | -78.59355 | 2969 ft | 185 kts | 314° |
| 2026-05-07 01:47 | 35.97718 | -78.60536 | 2945 ft | 165 kts | 272° |
| 2026-05-07 01:47 | 35.97495 | -78.61864 | 2938 ft | 158 kts | 249° |
| 2026-05-07 01:48 | 35.97119 | -78.63154 | 2970 ft | 160 kts | 246° |
| 2026-05-07 01:48 | 35.96672 | -78.64424 | 2992 ft | 163 kts | 244° |
| 2026-05-07 01:48 | 35.96146 | -78.65676 | 2941 ft | 168 kts | 240° |
| 2026-05-07 01:48 | 35.95530 | -78.66955 | 2748 ft | 179 kts | 238° |
| 2026-05-07 01:49 | 35.94825 | -78.68259 | 2550 ft | 183 kts | 235° |
| 2026-05-07 01:49 | 35.94075 | -78.69529 | 2322 ft | 183 kts | 233° |
| 2026-05-07 01:49 | 35.93318 | -78.70789 | 2044 ft | 182 kts | 234° |
| 2026-05-07 01:49 | 35.92611 | -78.72038 | 1796 ft | 172 kts | 234° |
| 2026-05-07 01:50 | 35.91955 | -78.73031 | 1586 ft | 131 kts | 225° |
| 2026-05-07 01:50 | 35.91341 | -78.73751 | 1396 ft | 115 kts | 223° |
| 2026-05-07 01:50 | 35.90776 | -78.74380 | 1249 ft | 105 kts | 223° |
| 2026-05-07 01:50 | 35.90265 | -78.75007 | 1102 ft | 102 kts | 225° |
| 2026-05-07 01:51 | 35.89781 | -78.75632 | 981 ft | 107 kts | 226° |
| 2026-05-07 01:51 | 35.89256 | -78.76313 | 862 ft | 112 kts | 222° |
| 2026-05-07 01:51 | 35.88686 | -78.76982 | 725 ft | 112 kts | 221° |
| 2026-05-07 01:51 | 35.88151 | -78.77662 | 539 ft | 108 kts | 223° |
| 2026-05-07 01:52 | 35.87648 | -78.78284 | 428 ft | 94 kts | 220° |
| 2026-05-07 01:52 | 35.87224 | -78.78788 | 416 ft | 76 kts | 225° |
| 2026-05-07 01:52 | 35.86892 | -78.79189 | 412 ft | 58 kts | 229° |
| 2026-05-07 01:52 | 35.86799 | -78.79477 | 409 ft | 10 kts | 342° |
| 2026-05-07 01:53 | 35.86803 | -78.79477 | 409 ft | 0 kts | 3° |
| 2026-05-07 01:54 | 35.86847 | -78.79453 | 411 ft | 14 kts | 45° |
| 2026-05-07 01:54 | 35.86921 | -78.79361 | 409 ft | 15 kts | 46° |
| 2026-05-07 01:54 | 35.86990 | -78.79271 | 411 ft | 14 kts | 46° |
| 2026-05-07 01:54 | 35.87057 | -78.79183 | 413 ft | 14 kts | 46° |
| 2026-05-07 01:55 | 35.87127 | -78.79105 | 414 ft | 13 kts | 40° |
| 2026-05-07 01:55 | 35.87196 | -78.79028 | 418 ft | 16 kts | 43° |
| 2026-05-07 01:55 | 35.87287 | -78.78912 | 420 ft | 21 kts | 47° |
| 2026-05-07 01:55 | 35.87381 | -78.78791 | 424 ft | 18 kts | 45° |
| 2026-05-07 01:56 | 35.87468 | -78.78680 | 425 ft | 22 kts | 45° |
| 2026-05-07 01:56 | 35.87605 | -78.78516 | 429 ft | 29 kts | 43° |
| 2026-05-07 01:56 | 35.87715 | -78.78395 | 421 ft | 14 kts | 32° |
| 2026-05-07 01:56 | 35.87752 | -78.78418 | 427 ft | 7 kts | 318° |
| 2026-05-07 01:57 | 35.87777 | -78.78430 | 423 ft | 5 kts | 39° |
| 2026-05-07 01:57 | 35.87823 | -78.78382 | 430 ft | 14 kts | 8° |
| 2026-05-07 01:57 | 35.87882 | -78.78405 | 429 ft | 8 kts | 33° |
| 2026-05-07 01:57 | 35.87872 | -78.78378 | 425 ft | 0 kts | 239° |